sensor_id;sensor_type;location;lat;lon;timestamp;P1;durP1;ratioP1;P2;durP2;ratioP2
22480;SDS011;11407;56.964;-2.212;2023-01-01T00:01:31;5.63;;;3.47;;
22480;SDS011;11407;56.964;-2.212;2023-01-01T00:04:04;12.13;;;7.80;;
22480;SDS011;11407;56.964;-2.212;2023-01-01T00:06:32;10.20;;;5.50;;
22480;SDS011;11407;56.964;-2.212;2023-01-01T00:08:58;6.70;;;3.30;;
22480;SDS011;11407;56.964;-2.212;2023-01-01T00:11:42;5.43;;;2.70;;
22480;SDS011;11407;56.964;-2.212;2023-01-01T00:14:07;5.63;;;3.23;;
22480;SDS011;11407;56.964;-2.212;2023-01-01T00:16:33;9.27;;;4.63;;
22480;SDS011;11407;56.964;-2.212;2023-01-01T00:18:58;6.20;;;3.73;;
22480;SDS011;11407;56.964;-2.212;2023-01-01T00:21:23;9.77;;;4.07;;
22480;SDS011;11407;56.964;-2.212;2023-01-01T00:23:49;7.17;;;3.77;;
22480;SDS011;11407;56.964;-2.212;2023-01-01T00:26:15;6.83;;;3.17;;
22480;SDS011;11407;56.964;-2.212;2023-01-01T00:28:42;3.93;;;2.53;;
22480;SDS011;11407;56.964;-2.212;2023-01-01T00:31:09;4.83;;;2.83;;
22480;SDS011;11407;56.964;-2.212;2023-01-01T00:33:36;3.37;;;2.30;;
22480;SDS011;11407;56.964;-2.212;2023-01-01T00:36:05;5.13;;;3.13;;
22480;SDS011;11407;56.964;-2.212;2023-01-01T00:38:32;3.97;;;2.43;;
22480;SDS011;11407;56.964;-2.212;2023-01-01T00:40:58;3.37;;;1.80;;
22480;SDS011;11407;56.964;-2.212;2023-01-01T00:43:24;3.17;;;1.70;;
22480;SDS011;11407;56.964;-2.212;2023-01-01T00:45:49;4.90;;;1.90;;
22480;SDS011;11407;56.964;-2.212;2023-01-01T00:48:17;3.97;;;2.40;;
22480;SDS011;11407;56.964;-2.212;2023-01-01T00:50:45;4.03;;;2.87;;
22480;SDS011;11407;56.964;-2.212;2023-01-01T00:53:11;4.23;;;2.83;;
22480;SDS011;11407;56.964;-2.212;2023-01-01T00:55:40;3.60;;;2.67;;
22480;SDS011;11407;56.964;-2.212;2023-01-01T00:58:07;3.63;;;2.50;;
22480;SDS011;11407;56.964;-2.212;2023-01-01T01:00:32;4.50;;;2.50;;
22480;SDS011;11407;56.964;-2.212;2023-01-01T01:02:59;3.63;;;2.30;;
22480;SDS011;11407;56.964;-2.212;2023-01-01T01:05:24;4.73;;;2.33;;
22480;SDS011;11407;56.964;-2.212;2023-01-01T01:07:50;4.73;;;2.60;;
22480;SDS011;11407;56.964;-2.212;2023-01-01T01:10:15;5.40;;;2.67;;
22480;SDS011;11407;56.964;-2.212;2023-01-01T01:12:41;4.17;;;2.30;;
22480;SDS011;11407;56.964;-2.212;2023-01-01T01:15:07;5.23;;;2.40;;
22480;SDS011;11407;56.964;-2.212;2023-01-01T01:17:33;5.30;;;2.57;;
22480;SDS011;11407;56.964;-2.212;2023-01-01T01:19:59;4.47;;;2.77;;
22480;SDS011;11407;56.964;-2.212;2023-01-01T01:22:25;5.60;;;2.80;;
22480;SDS011;11407;56.964;-2.212;2023-01-01T01:24:50;5.13;;;2.83;;
22480;SDS011;11407;56.964;-2.212;2023-01-01T01:27:16;5.33;;;2.30;;
22480;SDS011;11407;56.964;-2.212;2023-01-01T01:29:42;4.93;;;2.27;;
22480;SDS011;11407;56.964;-2.212;2023-01-01T01:32:08;1.77;;;1.40;;
22480;SDS011;11407;56.964;-2.212;2023-01-01T01:34:34;7.70;;;1.40;;
22480;SDS011;11407;56.964;-2.212;2023-01-01T01:37:00;3.07;;;1.23;;
22480;SDS011;11407;56.964;-2.212;2023-01-01T01:39:25;2.13;;;1.10;;
22480;SDS011;11407;56.964;-2.212;2023-01-01T01:41:51;4.23;;;1.37;;
22480;SDS011;11407;56.964;-2.212;2023-01-01T01:47:26;2.73;;;0.83;;
22480;SDS011;11407;56.964;-2.212;2023-01-01T01:50:00;1.57;;;0.83;;
22480;SDS011;11407;56.964;-2.212;2023-01-01T01:52:41;5.40;;;0.70;;
22480;SDS011;11407;56.964;-2.212;2023-01-01T01:55:36;2.13;;;0.90;;
22480;SDS011;11407;56.964;-2.212;2023-01-01T01:58:05;3.43;;;1.00;;
22480;SDS011;11407;56.964;-2.212;2023-01-01T02:00:35;3.70;;;0.87;;
22480;SDS011;11407;56.964;-2.212;2023-01-01T02:05:40;5.73;;;1.27;;
22480;SDS011;11407;56.964;-2.212;2023-01-01T02:08:06;3.70;;;1.10;;
22480;SDS011;11407;56.964;-2.212;2023-01-01T02:10:32;6.30;;;0.93;;
22480;SDS011;11407;56.964;-2.212;2023-01-01T02:12:58;2.53;;;0.90;;
22480;SDS011;11407;56.964;-2.212;2023-01-01T02:15:25;4.97;;;1.57;;
22480;SDS011;11407;56.964;-2.212;2023-01-01T02:18:01;4.10;;;1.97;;
22480;SDS011;11407;56.964;-2.212;2023-01-01T02:31:17;4.37;;;1.23;;
22480;SDS011;11407;56.964;-2.212;2023-01-01T02:33:48;5.50;;;1.43;;
22480;SDS011;11407;56.964;-2.212;2023-01-01T02:36:15;5.80;;;1.60;;
22480;SDS011;11407;56.964;-2.212;2023-01-01T02:38:43;7.33;;;1.57;;
22480;SDS011;11407;56.964;-2.212;2023-01-01T02:41:13;4.67;;;1.23;;
22480;SDS011;11407;56.964;-2.212;2023-01-01T02:43:43;3.70;;;1.60;;
22480;SDS011;11407;56.964;-2.212;2023-01-01T02:46:10;9.10;;;1.33;;
22480;SDS011;11407;56.964;-2.212;2023-01-01T02:57:08;4.20;;;1.00;;
22480;SDS011;11407;56.964;-2.212;2023-01-01T03:05:14;8.40;;;1.30;;
22480;SDS011;11407;56.964;-2.212;2023-01-01T03:10:45;4.43;;;1.00;;
22480;SDS011;11407;56.964;-2.212;2023-01-01T03:18:57;3.17;;;1.07;;
22480;SDS011;11407;56.964;-2.212;2023-01-01T03:21:52;2.97;;;0.90;;
22480;SDS011;11407;56.964;-2.212;2023-01-01T03:24:28;1.30;;;0.90;;
22480;SDS011;11407;56.964;-2.212;2023-01-01T03:26:59;3.07;;;1.10;;
22480;SDS011;11407;56.964;-2.212;2023-01-01T03:29:29;4.73;;;0.87;;
22480;SDS011;11407;56.964;-2.212;2023-01-01T03:31:58;2.43;;;1.00;;
22480;SDS011;11407;56.964;-2.212;2023-01-01T03:34:33;1.67;;;0.93;;
22480;SDS011;11407;56.964;-2.212;2023-01-01T03:37:05;3.17;;;1.23;;
22480;SDS011;11407;56.964;-2.212;2023-01-01T03:39:35;3.63;;;1.20;;
22480;SDS011;11407;56.964;-2.212;2023-01-01T03:44:55;4.33;;;1.00;;
22480;SDS011;11407;56.964;-2.212;2023-01-01T03:47:26;3.13;;;1.23;;
22480;SDS011;11407;56.964;-2.212;2023-01-01T03:49:53;3.67;;;1.63;;
22480;SDS011;11407;56.964;-2.212;2023-01-01T04:00:34;1.70;;;0.80;;
22480;SDS011;11407;56.964;-2.212;2023-01-01T04:03:05;1.73;;;0.90;;
22480;SDS011;11407;56.964;-2.212;2023-01-01T04:05:39;2.40;;;1.30;;
22480;SDS011;11407;56.964;-2.212;2023-01-01T04:08:06;5.10;;;1.10;;
22480;SDS011;11407;56.964;-2.212;2023-01-01T04:10:34;4.87;;;1.30;;
22480;SDS011;11407;56.964;-2.212;2023-01-01T04:13:03;6.30;;;1.33;;
22480;SDS011;11407;56.964;-2.212;2023-01-01T04:15:31;1.53;;;0.87;;
22480;SDS011;11407;56.964;-2.212;2023-01-01T04:17:57;2.00;;;1.00;;
22480;SDS011;11407;56.964;-2.212;2023-01-01T04:20:23;7.33;;;1.20;;
22480;SDS011;11407;56.964;-2.212;2023-01-01T04:22:49;6.40;;;1.10;;
22480;SDS011;11407;56.964;-2.212;2023-01-01T04:25:14;2.13;;;0.90;;
22480;SDS011;11407;56.964;-2.212;2023-01-01T04:27:41;4.47;;;0.70;;
22480;SDS011;11407;56.964;-2.212;2023-01-01T04:30:08;4.30;;;0.90;;
22480;SDS011;11407;56.964;-2.212;2023-01-01T04:32:35;7.73;;;1.50;;
22480;SDS011;11407;56.964;-2.212;2023-01-01T04:35:01;5.90;;;1.13;;
22480;SDS011;11407;56.964;-2.212;2023-01-01T04:37:26;3.53;;;0.93;;
22480;SDS011;11407;56.964;-2.212;2023-01-01T04:39:52;8.27;;;1.37;;
22480;SDS011;11407;56.964;-2.212;2023-01-01T04:42:17;6.87;;;1.13;;
22480;SDS011;11407;56.964;-2.212;2023-01-01T04:44:43;4.87;;;0.90;;
22480;SDS011;11407;56.964;-2.212;2023-01-01T04:47:08;6.23;;;0.90;;
22480;SDS011;11407;56.964;-2.212;2023-01-01T04:49:34;8.23;;;0.73;;
22480;SDS011;11407;56.964;-2.212;2023-01-01T04:51:59;6.73;;;1.53;;
22480;SDS011;11407;56.964;-2.212;2023-01-01T04:54:25;5.23;;;0.90;;
22480;SDS011;11407;56.964;-2.212;2023-01-01T04:56:51;8.73;;;1.10;;
22480;SDS011;11407;56.964;-2.212;2023-01-01T04:59:16;3.70;;;0.80;;
22480;SDS011;11407;56.964;-2.212;2023-01-01T05:01:42;8.50;;;1.60;;
22480;SDS011;11407;56.964;-2.212;2023-01-01T05:04:08;4.50;;;1.10;;
22480;SDS011;11407;56.964;-2.212;2023-01-01T05:06:37;13.70;;;1.50;;
22480;SDS011;11407;56.964;-2.212;2023-01-01T05:09:02;5.90;;;1.20;;
22480;SDS011;11407;56.964;-2.212;2023-01-01T05:11:28;10.87;;;1.30;;
22480;SDS011;11407;56.964;-2.212;2023-01-01T05:13:55;7.37;;;1.30;;
22480;SDS011;11407;56.964;-2.212;2023-01-01T05:16:23;10.57;;;1.37;;
22480;SDS011;11407;56.964;-2.212;2023-01-01T05:18:54;4.03;;;1.00;;
22480;SDS011;11407;56.964;-2.212;2023-01-01T05:21:21;4.90;;;0.80;;
22480;SDS011;11407;56.964;-2.212;2023-01-01T05:23:56;3.17;;;0.93;;
22480;SDS011;11407;56.964;-2.212;2023-01-01T05:26:27;7.77;;;1.10;;
22480;SDS011;11407;56.964;-2.212;2023-01-01T05:28:56;7.73;;;1.20;;
22480;SDS011;11407;56.964;-2.212;2023-01-01T05:31:23;7.77;;;1.90;;
22480;SDS011;11407;56.964;-2.212;2023-01-01T05:33:50;3.90;;;0.80;;
22480;SDS011;11407;56.964;-2.212;2023-01-01T05:36:35;3.00;;;0.80;;
22480;SDS011;11407;56.964;-2.212;2023-01-01T05:39:03;7.03;;;1.10;;
22480;SDS011;11407;56.964;-2.212;2023-01-01T05:41:33;8.20;;;1.43;;
22480;SDS011;11407;56.964;-2.212;2023-01-01T05:44:00;4.37;;;1.37;;
22480;SDS011;11407;56.964;-2.212;2023-01-01T05:46:27;7.30;;;1.10;;
22480;SDS011;11407;56.964;-2.212;2023-01-01T05:48:52;3.77;;;0.97;;
22480;SDS011;11407;56.964;-2.212;2023-01-01T05:51:25;6.70;;;1.17;;
22480;SDS011;11407;56.964;-2.212;2023-01-01T05:53:52;6.50;;;1.13;;
22480;SDS011;11407;56.964;-2.212;2023-01-01T05:56:18;2.63;;;0.90;;
22480;SDS011;11407;56.964;-2.212;2023-01-01T05:58:43;5.97;;;0.93;;
22480;SDS011;11407;56.964;-2.212;2023-01-01T06:01:11;6.97;;;0.90;;
22480;SDS011;11407;56.964;-2.212;2023-01-01T06:03:37;5.87;;;1.00;;
22480;SDS011;11407;56.964;-2.212;2023-01-01T06:06:08;7.73;;;1.10;;
22480;SDS011;11407;56.964;-2.212;2023-01-01T06:08:35;6.33;;;0.97;;
22480;SDS011;11407;56.964;-2.212;2023-01-01T06:11:04;3.80;;;1.00;;
22480;SDS011;11407;56.964;-2.212;2023-01-01T06:13:30;5.37;;;0.97;;
22480;SDS011;11407;56.964;-2.212;2023-01-01T06:15:57;1.93;;;0.70;;
22480;SDS011;11407;56.964;-2.212;2023-01-01T06:18:24;3.13;;;0.80;;
22480;SDS011;11407;56.964;-2.212;2023-01-01T06:20:52;1.07;;;0.67;;
22480;SDS011;11407;56.964;-2.212;2023-01-01T06:23:18;5.87;;;1.20;;
22480;SDS011;11407;56.964;-2.212;2023-01-01T06:25:43;4.93;;;1.10;;
22480;SDS011;11407;56.964;-2.212;2023-01-01T06:28:09;7.70;;;0.90;;
22480;SDS011;11407;56.964;-2.212;2023-01-01T06:30:35;5.03;;;1.20;;
22480;SDS011;11407;56.964;-2.212;2023-01-01T06:33:02;5.20;;;1.37;;
22480;SDS011;11407;56.964;-2.212;2023-01-01T06:35:28;4.47;;;0.90;;
22480;SDS011;11407;56.964;-2.212;2023-01-01T06:37:54;7.53;;;1.30;;
22480;SDS011;11407;56.964;-2.212;2023-01-01T06:40:19;3.90;;;0.70;;
22480;SDS011;11407;56.964;-2.212;2023-01-01T06:42:45;4.80;;;0.77;;
22480;SDS011;11407;56.964;-2.212;2023-01-01T06:45:11;3.00;;;1.00;;
22480;SDS011;11407;56.964;-2.212;2023-01-01T06:47:37;2.93;;;0.93;;
22480;SDS011;11407;56.964;-2.212;2023-01-01T06:50:03;6.03;;;1.00;;
22480;SDS011;11407;56.964;-2.212;2023-01-01T06:52:29;1.33;;;0.70;;
22480;SDS011;11407;56.964;-2.212;2023-01-01T06:54:55;2.17;;;1.00;;
22480;SDS011;11407;56.964;-2.212;2023-01-01T06:57:21;5.40;;;0.83;;
22480;SDS011;11407;56.964;-2.212;2023-01-01T06:59:46;4.93;;;1.30;;
22480;SDS011;11407;56.964;-2.212;2023-01-01T07:02:11;7.83;;;1.43;;
22480;SDS011;11407;56.964;-2.212;2023-01-01T07:04:37;6.13;;;0.97;;
22480;SDS011;11407;56.964;-2.212;2023-01-01T07:07:03;6.13;;;0.80;;
22480;SDS011;11407;56.964;-2.212;2023-01-01T07:09:28;1.07;;;0.67;;
22480;SDS011;11407;56.964;-2.212;2023-01-01T07:11:54;4.57;;;0.90;;
22480;SDS011;11407;56.964;-2.212;2023-01-01T07:14:19;5.20;;;1.20;;
22480;SDS011;11407;56.964;-2.212;2023-01-01T07:16:45;6.80;;;0.80;;
22480;SDS011;11407;56.964;-2.212;2023-01-01T07:19:10;4.97;;;1.27;;
22480;SDS011;11407;56.964;-2.212;2023-01-01T07:21:45;3.40;;;0.80;;
22480;SDS011;11407;56.964;-2.212;2023-01-01T07:24:16;5.63;;;0.90;;
22480;SDS011;11407;56.964;-2.212;2023-01-01T07:26:42;5.13;;;0.70;;
22480;SDS011;11407;56.964;-2.212;2023-01-01T07:29:08;3.37;;;0.80;;
22480;SDS011;11407;56.964;-2.212;2023-01-01T07:31:38;4.63;;;0.90;;
22480;SDS011;11407;56.964;-2.212;2023-01-01T07:34:05;1.77;;;0.87;;
22480;SDS011;11407;56.964;-2.212;2023-01-01T07:36:32;7.07;;;0.90;;
22480;SDS011;11407;56.964;-2.212;2023-01-01T07:38:57;9.70;;;1.10;;
22480;SDS011;11407;56.964;-2.212;2023-01-01T07:41:23;6.10;;;0.90;;
22480;SDS011;11407;56.964;-2.212;2023-01-01T07:43:48;3.57;;;1.27;;
22480;SDS011;11407;56.964;-2.212;2023-01-01T07:46:14;3.67;;;1.00;;
22480;SDS011;11407;56.964;-2.212;2023-01-01T07:48:40;3.07;;;1.00;;
22480;SDS011;11407;56.964;-2.212;2023-01-01T07:51:06;6.83;;;1.20;;
22480;SDS011;11407;56.964;-2.212;2023-01-01T07:53:31;6.47;;;1.57;;
22480;SDS011;11407;56.964;-2.212;2023-01-01T07:55:57;4.43;;;0.90;;
22480;SDS011;11407;56.964;-2.212;2023-01-01T07:58:22;5.97;;;1.00;;
22480;SDS011;11407;56.964;-2.212;2023-01-01T08:00:48;2.87;;;0.80;;
22480;SDS011;11407;56.964;-2.212;2023-01-01T08:03:14;5.03;;;1.10;;
22480;SDS011;11407;56.964;-2.212;2023-01-01T08:05:40;2.93;;;0.90;;
22480;SDS011;11407;56.964;-2.212;2023-01-01T08:08:05;6.27;;;0.93;;
22480;SDS011;11407;56.964;-2.212;2023-01-01T08:10:31;4.30;;;1.13;;
22480;SDS011;11407;56.964;-2.212;2023-01-01T08:13:03;10.50;;;1.83;;
22480;SDS011;11407;56.964;-2.212;2023-01-01T08:15:30;3.07;;;0.80;;
22480;SDS011;11407;56.964;-2.212;2023-01-01T08:17:57;4.07;;;0.60;;
22480;SDS011;11407;56.964;-2.212;2023-01-01T08:20:24;6.00;;;1.20;;
22480;SDS011;11407;56.964;-2.212;2023-01-01T08:22:50;6.60;;;1.23;;
22480;SDS011;11407;56.964;-2.212;2023-01-01T08:25:16;4.87;;;1.50;;
22480;SDS011;11407;56.964;-2.212;2023-01-01T08:27:41;5.27;;;1.20;;
22480;SDS011;11407;56.964;-2.212;2023-01-01T08:30:06;5.23;;;1.00;;
22480;SDS011;11407;56.964;-2.212;2023-01-01T08:32:33;9.70;;;2.00;;
22480;SDS011;11407;56.964;-2.212;2023-01-01T08:34:58;3.90;;;1.50;;
22480;SDS011;11407;56.964;-2.212;2023-01-01T08:37:23;7.67;;;1.67;;
22480;SDS011;11407;56.964;-2.212;2023-01-01T08:39:49;12.40;;;2.37;;
22480;SDS011;11407;56.964;-2.212;2023-01-01T08:42:16;7.20;;;1.87;;
22480;SDS011;11407;56.964;-2.212;2023-01-01T08:44:42;8.50;;;2.53;;
22480;SDS011;11407;56.964;-2.212;2023-01-01T08:47:15;13.53;;;3.53;;
22480;SDS011;11407;56.964;-2.212;2023-01-01T08:49:42;9.80;;;2.13;;
22480;SDS011;11407;56.964;-2.212;2023-01-01T08:52:07;6.50;;;1.90;;
22480;SDS011;11407;56.964;-2.212;2023-01-01T08:54:32;6.47;;;2.33;;
22480;SDS011;11407;56.964;-2.212;2023-01-01T08:56:58;9.70;;;2.17;;
22480;SDS011;11407;56.964;-2.212;2023-01-01T08:59:23;4.63;;;1.23;;
22480;SDS011;11407;56.964;-2.212;2023-01-01T09:01:49;7.63;;;1.60;;
22480;SDS011;11407;56.964;-2.212;2023-01-01T09:04:14;15.60;;;3.83;;
22480;SDS011;11407;56.964;-2.212;2023-01-01T09:06:41;6.10;;;2.30;;
22480;SDS011;11407;56.964;-2.212;2023-01-01T09:09:06;11.43;;;3.77;;
22480;SDS011;11407;56.964;-2.212;2023-01-01T09:11:32;4.23;;;1.50;;
22480;SDS011;11407;56.964;-2.212;2023-01-01T09:13:57;10.47;;;3.30;;
22480;SDS011;11407;56.964;-2.212;2023-01-01T09:16:23;5.73;;;1.60;;
22480;SDS011;11407;56.964;-2.212;2023-01-01T09:18:48;3.73;;;1.00;;
22480;SDS011;11407;56.964;-2.212;2023-01-01T09:21:14;7.73;;;2.20;;
22480;SDS011;11407;56.964;-2.212;2023-01-01T09:23:39;9.33;;;1.90;;
22480;SDS011;11407;56.964;-2.212;2023-01-01T09:26:05;5.70;;;1.40;;
22480;SDS011;11407;56.964;-2.212;2023-01-01T09:28:32;8.40;;;1.40;;
22480;SDS011;11407;56.964;-2.212;2023-01-01T09:30:57;7.27;;;1.20;;
22480;SDS011;11407;56.964;-2.212;2023-01-01T09:33:23;5.97;;;1.50;;
22480;SDS011;11407;56.964;-2.212;2023-01-01T09:35:48;8.07;;;2.00;;
22480;SDS011;11407;56.964;-2.212;2023-01-01T09:38:14;5.37;;;1.30;;
22480;SDS011;11407;56.964;-2.212;2023-01-01T09:43:19;6.73;;;1.00;;
22480;SDS011;11407;56.964;-2.212;2023-01-01T09:46:03;5.37;;;1.17;;
22480;SDS011;11407;56.964;-2.212;2023-01-01T09:48:31;5.73;;;0.93;;
22480;SDS011;11407;56.964;-2.212;2023-01-01T09:50:58;7.10;;;1.07;;
22480;SDS011;11407;56.964;-2.212;2023-01-01T09:53:42;7.53;;;1.10;;
22480;SDS011;11407;56.964;-2.212;2023-01-01T09:56:25;3.60;;;1.20;;
22480;SDS011;11407;56.964;-2.212;2023-01-01T09:58:53;5.47;;;1.00;;
22480;SDS011;11407;56.964;-2.212;2023-01-01T10:17:41;5.27;;;0.80;;
22480;SDS011;11407;56.964;-2.212;2023-01-01T10:20:14;5.50;;;1.00;;
22480;SDS011;11407;56.964;-2.212;2023-01-01T10:22:52;4.00;;;1.00;;
22480;SDS011;11407;56.964;-2.212;2023-01-01T10:25:21;1.40;;;0.77;;
22480;SDS011;11407;56.964;-2.212;2023-01-01T10:27:51;2.07;;;0.60;;
22480;SDS011;11407;56.964;-2.212;2023-01-01T10:30:22;5.20;;;1.20;;
22480;SDS011;11407;56.964;-2.212;2023-01-01T10:32:49;3.33;;;0.80;;
22480;SDS011;11407;56.964;-2.212;2023-01-01T10:35:20;2.87;;;0.60;;
22480;SDS011;11407;56.964;-2.212;2023-01-01T10:37:47;2.63;;;0.70;;
22480;SDS011;11407;56.964;-2.212;2023-01-01T10:40:18;1.67;;;0.70;;
22480;SDS011;11407;56.964;-2.212;2023-01-01T10:42:49;2.07;;;0.77;;
22480;SDS011;11407;56.964;-2.212;2023-01-01T10:45:27;1.97;;;0.80;;
22480;SDS011;11407;56.964;-2.212;2023-01-01T10:50:41;5.47;;;1.17;;
22480;SDS011;11407;56.964;-2.212;2023-01-01T10:58:46;6.27;;;0.73;;
22480;SDS011;11407;56.964;-2.212;2023-01-01T11:09:18;3.87;;;0.80;;
22480;SDS011;11407;56.964;-2.212;2023-01-01T11:11:45;4.10;;;1.10;;
22480;SDS011;11407;56.964;-2.212;2023-01-01T11:14:57;8.00;;;1.20;;
22480;SDS011;11407;56.964;-2.212;2023-01-01T11:17:03;2.93;;;1.00;;
22480;SDS011;11407;56.964;-2.212;2023-01-01T11:19:34;3.97;;;1.00;;
22480;SDS011;11407;56.964;-2.212;2023-01-01T11:22:01;3.13;;;1.00;;
22480;SDS011;11407;56.964;-2.212;2023-01-01T11:24:28;5.27;;;1.27;;
22480;SDS011;11407;56.964;-2.212;2023-01-01T11:29:44;3.63;;;1.30;;
22480;SDS011;11407;56.964;-2.212;2023-01-01T11:32:12;5.83;;;1.93;;
22480;SDS011;11407;56.964;-2.212;2023-01-01T11:34:46;7.77;;;2.90;;
22480;SDS011;11407;56.964;-2.212;2023-01-01T11:37:28;8.10;;;3.43;;
22480;SDS011;11407;56.964;-2.212;2023-01-01T11:40:00;12.93;;;5.03;;
22480;SDS011;11407;56.964;-2.212;2023-01-01T11:42:28;10.10;;;3.53;;
22480;SDS011;11407;56.964;-2.212;2023-01-01T11:44:57;5.83;;;2.80;;
22480;SDS011;11407;56.964;-2.212;2023-01-01T11:50:01;10.10;;;4.63;;
22480;SDS011;11407;56.964;-2.212;2023-01-01T11:55:12;7.07;;;3.60;;
22480;SDS011;11407;56.964;-2.212;2023-01-01T11:57:50;9.63;;;3.87;;
22480;SDS011;11407;56.964;-2.212;2023-01-01T12:00:18;13.10;;;5.43;;
22480;SDS011;11407;56.964;-2.212;2023-01-01T12:02:49;9.93;;;2.80;;
22480;SDS011;11407;56.964;-2.212;2023-01-01T12:05:21;9.30;;;3.40;;
22480;SDS011;11407;56.964;-2.212;2023-01-01T12:07:49;7.23;;;2.70;;
22480;SDS011;11407;56.964;-2.212;2023-01-01T12:13:02;6.50;;;3.07;;
22480;SDS011;11407;56.964;-2.212;2023-01-01T12:15:34;5.73;;;2.80;;
22480;SDS011;11407;56.964;-2.212;2023-01-01T12:18:05;7.70;;;2.30;;
22480;SDS011;11407;56.964;-2.212;2023-01-01T12:20:56;10.07;;;2.20;;
22480;SDS011;11407;56.964;-2.212;2023-01-01T12:23:25;3.90;;;1.30;;
22480;SDS011;11407;56.964;-2.212;2023-01-01T12:25:53;6.13;;;2.40;;
22480;SDS011;11407;56.964;-2.212;2023-01-01T12:31:14;7.20;;;1.90;;
22480;SDS011;11407;56.964;-2.212;2023-01-01T12:38:46;6.40;;;1.80;;
22480;SDS011;11407;56.964;-2.212;2023-01-01T12:41:31;5.50;;;1.60;;
22480;SDS011;11407;56.964;-2.212;2023-01-01T12:49:29;9.17;;;1.53;;
22480;SDS011;11407;56.964;-2.212;2023-01-01T12:52:19;10.13;;;1.60;;
22480;SDS011;11407;56.964;-2.212;2023-01-01T13:00:30;9.07;;;1.43;;
22480;SDS011;11407;56.964;-2.212;2023-01-01T13:02:58;4.80;;;1.10;;
22480;SDS011;11407;56.964;-2.212;2023-01-01T13:08:04;5.17;;;1.30;;
22480;SDS011;11407;56.964;-2.212;2023-01-01T13:10:32;5.20;;;1.30;;
22480;SDS011;11407;56.964;-2.212;2023-01-01T13:13:00;2.60;;;0.80;;
22480;SDS011;11407;56.964;-2.212;2023-01-01T13:20:43;9.13;;;4.50;;
22480;SDS011;11407;56.964;-2.212;2023-01-01T13:48:01;7.23;;;3.13;;
22480;SDS011;11407;56.964;-2.212;2023-01-01T13:50:34;3.83;;;2.20;;
22480;SDS011;11407;56.964;-2.212;2023-01-01T14:02:13;4.47;;;2.00;;
22480;SDS011;11407;56.964;-2.212;2023-01-01T14:09:44;1.77;;;1.50;;
22480;SDS011;11407;56.964;-2.212;2023-01-01T14:12:19;1.97;;;1.37;;
22480;SDS011;11407;56.964;-2.212;2023-01-01T14:14:46;3.30;;;1.90;;
22480;SDS011;11407;56.964;-2.212;2023-01-01T14:17:12;3.57;;;2.20;;
22480;SDS011;11407;56.964;-2.212;2023-01-01T14:19:39;3.97;;;2.00;;
22480;SDS011;11407;56.964;-2.212;2023-01-01T14:22:09;3.47;;;2.10;;
22480;SDS011;11407;56.964;-2.212;2023-01-01T14:24:40;4.87;;;2.43;;
22480;SDS011;11407;56.964;-2.212;2023-01-01T14:27:07;2.87;;;1.83;;
22480;SDS011;11407;56.964;-2.212;2023-01-01T14:29:32;2.53;;;2.00;;
22480;SDS011;11407;56.964;-2.212;2023-01-01T14:32:02;4.30;;;1.80;;
22480;SDS011;11407;56.964;-2.212;2023-01-01T14:34:37;2.23;;;1.87;;
22480;SDS011;11407;56.964;-2.212;2023-01-01T14:37:03;2.03;;;1.60;;
22480;SDS011;11407;56.964;-2.212;2023-01-01T14:39:34;3.03;;;2.27;;
22480;SDS011;11407;56.964;-2.212;2023-01-01T14:42:02;2.40;;;1.40;;
22480;SDS011;11407;56.964;-2.212;2023-01-01T14:44:32;2.07;;;1.60;;
22480;SDS011;11407;56.964;-2.212;2023-01-01T14:47:01;3.67;;;2.30;;
22480;SDS011;11407;56.964;-2.212;2023-01-01T14:49:28;2.47;;;1.50;;
22480;SDS011;11407;56.964;-2.212;2023-01-01T14:52:02;4.10;;;2.40;;
22480;SDS011;11407;56.964;-2.212;2023-01-01T14:54:40;2.20;;;1.83;;
22480;SDS011;11407;56.964;-2.212;2023-01-01T14:57:09;2.73;;;2.27;;
22480;SDS011;11407;56.964;-2.212;2023-01-01T14:59:36;6.77;;;4.13;;
22480;SDS011;11407;56.964;-2.212;2023-01-01T15:02:14;4.63;;;3.20;;
22480;SDS011;11407;56.964;-2.212;2023-01-01T15:04:41;4.90;;;3.47;;
22480;SDS011;11407;56.964;-2.212;2023-01-01T15:07:18;3.17;;;2.40;;
22480;SDS011;11407;56.964;-2.212;2023-01-01T15:09:46;1.53;;;1.30;;
22480;SDS011;11407;56.964;-2.212;2023-01-01T15:12:12;3.07;;;1.60;;
22480;SDS011;11407;56.964;-2.212;2023-01-01T15:14:39;4.43;;;3.10;;
22480;SDS011;11407;56.964;-2.212;2023-01-01T15:17:10;7.37;;;5.37;;
22480;SDS011;11407;56.964;-2.212;2023-01-01T15:19:37;6.90;;;5.13;;
22480;SDS011;11407;56.964;-2.212;2023-01-01T15:22:13;4.90;;;3.57;;
22480;SDS011;11407;56.964;-2.212;2023-01-01T15:24:43;6.57;;;3.60;;
22480;SDS011;11407;56.964;-2.212;2023-01-01T15:27:13;5.73;;;4.27;;
22480;SDS011;11407;56.964;-2.212;2023-01-01T15:29:48;3.80;;;2.80;;
22480;SDS011;11407;56.964;-2.212;2023-01-01T15:32:14;3.00;;;2.20;;
22480;SDS011;11407;56.964;-2.212;2023-01-01T15:34:51;1.80;;;1.60;;
22480;SDS011;11407;56.964;-2.212;2023-01-01T15:45:35;1.77;;;1.20;;
22480;SDS011;11407;56.964;-2.212;2023-01-01T15:53:14;5.40;;;3.30;;
22480;SDS011;11407;56.964;-2.212;2023-01-01T15:55:43;3.93;;;3.17;;
22480;SDS011;11407;56.964;-2.212;2023-01-01T15:58:17;3.07;;;2.50;;
22480;SDS011;11407;56.964;-2.212;2023-01-01T16:01:04;3.40;;;2.70;;
22480;SDS011;11407;56.964;-2.212;2023-01-01T16:03:34;5.33;;;3.67;;
22480;SDS011;11407;56.964;-2.212;2023-01-01T16:06:01;6.20;;;4.63;;
22480;SDS011;11407;56.964;-2.212;2023-01-01T16:08:27;5.03;;;3.33;;
22480;SDS011;11407;56.964;-2.212;2023-01-01T16:10:52;3.57;;;2.70;;
22480;SDS011;11407;56.964;-2.212;2023-01-01T16:13:18;5.17;;;3.50;;
22480;SDS011;11407;56.964;-2.212;2023-01-01T16:18:43;7.83;;;4.40;;
22480;SDS011;11407;56.964;-2.212;2023-01-01T16:21:08;9.27;;;4.63;;
22480;SDS011;11407;56.964;-2.212;2023-01-01T16:23:34;8.47;;;6.37;;
22480;SDS011;11407;56.964;-2.212;2023-01-01T16:25:59;9.80;;;5.80;;
22480;SDS011;11407;56.964;-2.212;2023-01-01T16:28:24;9.40;;;6.30;;
22480;SDS011;11407;56.964;-2.212;2023-01-01T16:30:50;8.80;;;5.80;;
22480;SDS011;11407;56.964;-2.212;2023-01-01T16:33:16;11.17;;;6.63;;
22480;SDS011;11407;56.964;-2.212;2023-01-01T16:35:44;10.67;;;5.80;;
22480;SDS011;11407;56.964;-2.212;2023-01-01T16:38:10;15.20;;;8.33;;
22480;SDS011;11407;56.964;-2.212;2023-01-01T16:40:35;17.03;;;9.57;;
22480;SDS011;11407;56.964;-2.212;2023-01-01T16:43:01;12.13;;;8.13;;
22480;SDS011;11407;56.964;-2.212;2023-01-01T16:45:28;11.67;;;7.53;;
22480;SDS011;11407;56.964;-2.212;2023-01-01T16:47:53;8.63;;;5.70;;
22480;SDS011;11407;56.964;-2.212;2023-01-01T16:50:19;7.63;;;4.60;;
22480;SDS011;11407;56.964;-2.212;2023-01-01T16:52:45;7.50;;;4.37;;
22480;SDS011;11407;56.964;-2.212;2023-01-01T16:55:10;8.50;;;5.10;;
22480;SDS011;11407;56.964;-2.212;2023-01-01T16:57:36;6.37;;;3.90;;
22480;SDS011;11407;56.964;-2.212;2023-01-01T17:00:01;6.77;;;3.13;;
22480;SDS011;11407;56.964;-2.212;2023-01-01T17:02:27;4.07;;;2.27;;
22480;SDS011;11407;56.964;-2.212;2023-01-01T17:04:54;2.83;;;1.97;;
22480;SDS011;11407;56.964;-2.212;2023-01-01T17:07:19;3.13;;;2.53;;
22480;SDS011;11407;56.964;-2.212;2023-01-01T17:09:45;4.97;;;3.50;;
22480;SDS011;11407;56.964;-2.212;2023-01-01T17:12:11;3.40;;;2.73;;
22480;SDS011;11407;56.964;-2.212;2023-01-01T17:14:36;5.80;;;3.97;;
22480;SDS011;11407;56.964;-2.212;2023-01-01T17:17:01;5.30;;;4.10;;
22480;SDS011;11407;56.964;-2.212;2023-01-01T17:19:27;6.90;;;4.70;;
22480;SDS011;11407;56.964;-2.212;2023-01-01T17:21:52;4.43;;;3.07;;
22480;SDS011;11407;56.964;-2.212;2023-01-01T17:24:18;2.90;;;2.33;;
22480;SDS011;11407;56.964;-2.212;2023-01-01T17:26:44;3.03;;;2.20;;
22480;SDS011;11407;56.964;-2.212;2023-01-01T17:29:10;2.20;;;1.70;;
22480;SDS011;11407;56.964;-2.212;2023-01-01T17:31:36;1.97;;;1.70;;
22480;SDS011;11407;56.964;-2.212;2023-01-01T17:34:01;3.23;;;2.93;;
22480;SDS011;11407;56.964;-2.212;2023-01-01T17:36:27;5.43;;;4.60;;
22480;SDS011;11407;56.964;-2.212;2023-01-01T17:38:52;5.03;;;4.00;;